San Cayetano, Argentina
Current Conditions -  °F | °C
As of 11:00 PM on Wednesday 26 Nov 2014 (Local Time) from SAZM Reporting Station
Rain Showers Rain Showers  
Wind Chill: 64°   Ceiling: 10000
Heat Index: 64°   Visibility: 4mi
Dew Point: 52°   Wind: 18mph
Humidity: 64%   Direction: 290°WNW
Pressure: 29.91"   Gusts: NA
Location:  38.33°S, 59.62°W
Report Text: SAZM 270200Z 29016KT 7000 SHRA SCT025FEW035CB OVC100 18/11 Q1013
Loading
Personal Weather Stations






























Interactive Weather Map New forecast layout! Learn more

10-Day Weather Forecast

Advertisements
Track Severe Weather on mobile